sensor_id;sensor_type;location;lat;lon;timestamp;pressure;altitude;pressure_sealevel;temperature;humidity
58761;BME280;44529;47.464;19.014;2022-07-18T00:01:58;101041.44;;;19.46;37.58
58761;BME280;44529;47.464;19.014;2022-07-18T00:05:02;101038.31;;;19.32;38.07
58761;BME280;44529;47.464;19.014;2022-07-18T00:08:05;101037.78;;;19.26;37.93
58761;BME280;44529;47.464;19.014;2022-07-18T00:11:07;101035.66;;;19.19;37.84
58761;BME280;44529;47.464;19.014;2022-07-18T00:14:10;101032.84;;;19.04;38.07
58761;BME280;44529;47.464;19.014;2022-07-18T00:17:12;101043.31;;;18.86;38.55
58761;BME280;44529;47.464;19.014;2022-07-18T00:20:15;101045.19;;;18.70;39.28
58761;BME280;44529;47.464;19.014;2022-07-18T00:23:17;101047.22;;;18.60;39.50
58761;BME280;44529;47.464;19.014;2022-07-18T00:26:20;101047.00;;;18.53;39.43
58761;BME280;44529;47.464;19.014;2022-07-18T00:29:22;101040.37;;;18.54;39.32
58761;BME280;44529;47.464;19.014;2022-07-18T00:32:24;101047.59;;;18.47;39.94
58761;BME280;44529;47.464;19.014;2022-07-18T00:35:27;101047.28;;;18.36;40.60
58761;BME280;44529;47.464;19.014;2022-07-18T00:38:29;101043.28;;;18.33;40.41
58761;BME280;44529;47.464;19.014;2022-07-18T00:41:31;101041.56;;;18.29;40.71
58761;BME280;44529;47.464;19.014;2022-07-18T00:44:33;101039.97;;;18.28;40.38
58761;BME280;44529;47.464;19.014;2022-07-18T00:47:36;101043.84;;;18.27;40.17
58761;BME280;44529;47.464;19.014;2022-07-18T00:50:38;101041.56;;;18.29;40.14
58761;BME280;44529;47.464;19.014;2022-07-18T00:53:41;101046.16;;;18.37;40.05
58761;BME280;44529;47.464;19.014;2022-07-18T00:56:44;101049.31;;;18.39;39.17
58761;BME280;44529;47.464;19.014;2022-07-18T00:59:48;101050.34;;;18.47;39.19
58761;BME280;44529;47.464;19.014;2022-07-18T01:03:10;101049.53;;;18.58;38.15
58761;BME280;44529;47.464;19.014;2022-07-18T01:06:12;101055.22;;;18.65;37.72
58761;BME280;44529;47.464;19.014;2022-07-18T01:09:16;101048.81;;;18.74;36.93
58761;BME280;44529;47.464;19.014;2022-07-18T01:12:20;101044.56;;;18.88;36.42
58761;BME280;44529;47.464;19.014;2022-07-18T01:15:22;101050.69;;;18.98;36.21
58761;BME280;44529;47.464;19.014;2022-07-18T01:18:24;101047.72;;;19.03;35.95
58761;BME280;44529;47.464;19.014;2022-07-18T01:21:26;101050.09;;;19.04;36.11
58761;BME280;44529;47.464;19.014;2022-07-18T01:24:29;101048.62;;;19.07;36.35
58761;BME280;44529;47.464;19.014;2022-07-18T01:27:31;101040.91;;;19.12;36.43
58761;BME280;44529;47.464;19.014;2022-07-18T01:30:34;101043.31;;;19.14;36.53
58761;BME280;44529;47.464;19.014;2022-07-18T01:33:36;101047.53;;;19.11;36.59
58761;BME280;44529;47.464;19.014;2022-07-18T01:36:39;101052.59;;;19.09;36.61
58761;BME280;44529;47.464;19.014;2022-07-18T01:39:42;101051.44;;;19.10;36.47
58761;BME280;44529;47.464;19.014;2022-07-18T01:42:45;101055.53;;;19.16;36.23
58761;BME280;44529;47.464;19.014;2022-07-18T01:45:47;101056.25;;;19.13;36.34
58761;BME280;44529;47.464;19.014;2022-07-18T01:48:50;101048.06;;;19.01;36.78
58761;BME280;44529;47.464;19.014;2022-07-18T01:51:53;101058.88;;;19.10;36.49
58761;BME280;44529;47.464;19.014;2022-07-18T01:54:56;101048.94;;;19.05;36.83
58761;BME280;44529;47.464;19.014;2022-07-18T01:57:58;101044.59;;;19.04;37.17
58761;BME280;44529;47.464;19.014;2022-07-18T02:01:01;101053.19;;;19.03;37.56
58761;BME280;44529;47.464;19.014;2022-07-18T02:04:04;101054.63;;;19.12;36.93
58761;BME280;44529;47.464;19.014;2022-07-18T02:07:06;101048.94;;;19.05;37.58
58761;BME280;44529;47.464;19.014;2022-07-18T02:10:11;101049.59;;;19.14;37.11
58761;BME280;44529;47.464;19.014;2022-07-18T02:13:13;101055.28;;;19.21;37.09
58761;BME280;44529;47.464;19.014;2022-07-18T02:16:16;101050.47;;;19.18;37.18
58761;BME280;44529;47.464;19.014;2022-07-18T02:19:18;101057.03;;;19.14;37.50
58761;BME280;44529;47.464;19.014;2022-07-18T02:22:20;101056.31;;;19.17;37.29
58761;BME280;44529;47.464;19.014;2022-07-18T02:25:23;101054.37;;;19.17;37.38
58761;BME280;44529;47.464;19.014;2022-07-18T02:28:27;101060.53;;;19.27;37.21
58761;BME280;44529;47.464;19.014;2022-07-18T02:31:29;101057.59;;;19.19;37.54
58761;BME280;44529;47.464;19.014;2022-07-18T02:34:32;101062.72;;;19.21;38.08
58761;BME280;44529;47.464;19.014;2022-07-18T02:37:35;101054.28;;;19.14;38.43
58761;BME280;44529;47.464;19.014;2022-07-18T02:40:40;101053.97;;;19.03;38.70
58761;BME280;44529;47.464;19.014;2022-07-18T02:43:42;101059.91;;;19.05;38.79
58761;BME280;44529;47.464;19.014;2022-07-18T02:46:44;101057.53;;;19.04;38.31
58761;BME280;44529;47.464;19.014;2022-07-18T02:49:47;101062.09;;;19.00;38.58
58761;BME280;44529;47.464;19.014;2022-07-18T02:52:49;101063.41;;;18.90;38.79
58761;BME280;44529;47.464;19.014;2022-07-18T02:55:52;101055.72;;;18.96;38.61
58761;BME280;44529;47.464;19.014;2022-07-18T02:58:54;101052.19;;;18.95;38.63
58761;BME280;44529;47.464;19.014;2022-07-18T03:01:57;101065.22;;;18.86;38.88
58761;BME280;44529;47.464;19.014;2022-07-18T03:04:59;101053.87;;;19.00;38.44
58761;BME280;44529;47.464;19.014;2022-07-18T03:08:02;101064.75;;;18.96;38.77
58761;BME280;44529;47.464;19.014;2022-07-18T03:11:04;101065.00;;;18.91;39.16
58761;BME280;44529;47.464;19.014;2022-07-18T03:14:07;101069.12;;;18.85;39.37
58761;BME280;44529;47.464;19.014;2022-07-18T03:17:09;101073.00;;;18.84;39.48
58761;BME280;44529;47.464;19.014;2022-07-18T03:20:12;101063.87;;;18.80;39.59
58761;BME280;44529;47.464;19.014;2022-07-18T03:23:14;101066.38;;;18.85;39.60
58761;BME280;44529;47.464;19.014;2022-07-18T03:26:16;101067.31;;;18.77;39.74
58761;BME280;44529;47.464;19.014;2022-07-18T03:29:19;101067.47;;;18.68;39.66
58761;BME280;44529;47.464;19.014;2022-07-18T03:32:21;101059.53;;;18.79;39.50
58761;BME280;44529;47.464;19.014;2022-07-18T03:35:23;101063.06;;;18.79;39.67
58761;BME280;44529;47.464;19.014;2022-07-18T03:38:26;101060.25;;;18.76;39.62
58761;BME280;44529;47.464;19.014;2022-07-18T03:41:28;101068.22;;;18.81;39.62
58761;BME280;44529;47.464;19.014;2022-07-18T03:44:31;101071.88;;;18.73;39.88
58761;BME280;44529;47.464;19.014;2022-07-18T03:47:33;101074.37;;;18.65;40.20
58761;BME280;44529;47.464;19.014;2022-07-18T03:50:36;101079.88;;;18.65;40.16
58761;BME280;44529;47.464;19.014;2022-07-18T03:53:38;101081.97;;;18.69;40.15
58761;BME280;44529;47.464;19.014;2022-07-18T03:56:40;101083.06;;;18.67;40.34
58761;BME280;44529;47.464;19.014;2022-07-18T03:59:43;101089.59;;;18.63;40.55
58761;BME280;44529;47.464;19.014;2022-07-18T04:02:47;101086.28;;;18.57;40.92
58761;BME280;44529;47.464;19.014;2022-07-18T04:05:50;101084.34;;;18.46;41.13
58761;BME280;44529;47.464;19.014;2022-07-18T04:08:52;101094.50;;;18.57;40.92
58761;BME280;44529;47.464;19.014;2022-07-18T04:11:55;101091.78;;;18.70;40.49
58761;BME280;44529;47.464;19.014;2022-07-18T04:14:57;101091.31;;;18.67;41.23
58761;BME280;44529;47.464;19.014;2022-07-18T04:18:00;101084.91;;;18.63;41.04
58761;BME280;44529;47.464;19.014;2022-07-18T04:21:02;101090.28;;;18.72;40.96
58761;BME280;44529;47.464;19.014;2022-07-18T04:24:04;101095.66;;;18.69;41.01
58761;BME280;44529;47.464;19.014;2022-07-18T04:27:06;101094.16;;;18.71;41.21
58761;BME280;44529;47.464;19.014;2022-07-18T04:30:09;101097.09;;;18.78;40.68
58761;BME280;44529;47.464;19.014;2022-07-18T04:33:12;101104.31;;;18.83;40.70
58761;BME280;44529;47.464;19.014;2022-07-18T04:36:15;101100.84;;;18.86;41.04
58761;BME280;44529;47.464;19.014;2022-07-18T04:39:17;101098.13;;;18.86;40.83
58761;BME280;44529;47.464;19.014;2022-07-18T04:42:19;101098.13;;;18.86;40.85
58761;BME280;44529;47.464;19.014;2022-07-18T04:45:22;101102.91;;;18.89;41.11
58761;BME280;44529;47.464;19.014;2022-07-18T04:48:25;101107.41;;;19.09;40.24
58761;BME280;44529;47.464;19.014;2022-07-18T04:51:27;101108.22;;;19.10;40.40
58761;BME280;44529;47.464;19.014;2022-07-18T04:54:30;101102.63;;;19.06;40.51
58761;BME280;44529;47.464;19.014;2022-07-18T04:57:32;101103.78;;;19.05;42.51
58761;BME280;44529;47.464;19.014;2022-07-18T05:00:35;101112.00;;;19.05;43.02
58761;BME280;44529;47.464;19.014;2022-07-18T05:03:37;101107.41;;;19.09;45.93
58761;BME280;44529;47.464;19.014;2022-07-18T05:06:39;101100.69;;;19.07;43.88
58761;BME280;44529;47.464;19.014;2022-07-18T05:09:41;101098.75;;;19.07;44.20
58761;BME280;44529;47.464;19.014;2022-07-18T05:12:46;101103.78;;;19.05;48.96
58761;BME280;44529;47.464;19.014;2022-07-18T05:15:48;101104.47;;;19.02;48.05
58761;BME280;44529;47.464;19.014;2022-07-18T05:18:51;101106.31;;;18.98;51.21
58761;BME280;44529;47.464;19.014;2022-07-18T05:21:53;101098.91;;;18.86;48.51
58761;BME280;44529;47.464;19.014;2022-07-18T05:24:56;101104.03;;;19.00;44.47
58761;BME280;44529;47.464;19.014;2022-07-18T05:27:58;101103.22;;;19.00;45.91
58761;BME280;44529;47.464;19.014;2022-07-18T05:31:00;101106.78;;;19.00;49.50
58761;BME280;44529;47.464;19.014;2022-07-18T05:34:02;101110.75;;;19.03;47.88
58761;BME280;44529;47.464;19.014;2022-07-18T05:37:05;101111.87;;;19.14;44.99
58761;BME280;44529;47.464;19.014;2022-07-18T05:40:10;101108.06;;;19.18;42.70
58761;BME280;44529;47.464;19.014;2022-07-18T05:43:13;101105.69;;;19.17;45.08
58761;BME280;44529;47.464;19.014;2022-07-18T05:46:16;101110.56;;;19.24;46.41
58761;BME280;44529;47.464;19.014;2022-07-18T05:49:19;101112.03;;;19.33;44.01
58761;BME280;44529;47.464;19.014;2022-07-18T05:52:22;101108.88;;;19.47;44.85
58761;BME280;44529;47.464;19.014;2022-07-18T05:55:24;101110.72;;;19.71;42.25
58761;BME280;44529;47.464;19.014;2022-07-18T05:58:26;101101.53;;;19.79;42.59
58761;BME280;44529;47.464;19.014;2022-07-18T06:01:29;101105.31;;;19.74;45.80
58761;BME280;44529;47.464;19.014;2022-07-18T06:04:32;101091.50;;;19.87;48.05
58761;BME280;44529;47.464;19.014;2022-07-18T06:07:34;101098.06;;;19.82;47.01
58761;BME280;44529;47.464;19.014;2022-07-18T06:10:37;101104.09;;;19.88;42.13
58761;BME280;44529;47.464;19.014;2022-07-18T06:13:47;101099.41;;;20.04;42.75
58761;BME280;44529;47.464;19.014;2022-07-18T06:16:49;101093.91;;;20.04;43.82
58761;BME280;44529;47.464;19.014;2022-07-18T06:19:52;101092.22;;;19.99;43.94
58761;BME280;44529;47.464;19.014;2022-07-18T06:22:54;101106.28;;;20.14;41.58
58761;BME280;44529;47.464;19.014;2022-07-18T06:25:57;101104.87;;;20.20;41.83
58761;BME280;44529;47.464;19.014;2022-07-18T06:29:00;101102.81;;;20.33;43.88
58761;BME280;44529;47.464;19.014;2022-07-18T06:32:02;101107.78;;;20.43;41.20
58761;BME280;44529;47.464;19.014;2022-07-18T06:35:05;101109.66;;;20.54;40.33
58761;BME280;44529;47.464;19.014;2022-07-18T06:38:08;101107.41;;;20.60;41.06
58761;BME280;44529;47.464;19.014;2022-07-18T06:41:10;101111.03;;;20.64;42.53
58761;BME280;44529;47.464;19.014;2022-07-18T06:44:13;101108.31;;;20.64;40.82
58761;BME280;44529;47.464;19.014;2022-07-18T06:47:15;101103.16;;;20.63;40.72
58761;BME280;44529;47.464;19.014;2022-07-18T06:50:18;101107.13;;;20.65;41.47
58761;BME280;44529;47.464;19.014;2022-07-18T06:53:20;101105.00;;;20.74;40.28
58761;BME280;44529;47.464;19.014;2022-07-18T06:56:22;101084.63;;;20.95;39.89
58761;BME280;44529;47.464;19.014;2022-07-18T06:59:25;101090.03;;;20.91;42.14
58761;BME280;44529;47.464;19.014;2022-07-18T07:02:27;101090.53;;;20.97;40.08
58761;BME280;44529;47.464;19.014;2022-07-18T07:05:29;101085.13;;;21.00;40.52
58761;BME280;44529;47.464;19.014;2022-07-18T07:08:32;101081.78;;;21.10;41.22
58761;BME280;44529;47.464;19.014;2022-07-18T07:11:34;101086.50;;;21.29;40.27
58761;BME280;44529;47.464;19.014;2022-07-18T07:14:37;101081.59;;;21.39;39.77
58761;BME280;44529;47.464;19.014;2022-07-18T07:17:39;101078.47;;;21.63;39.55
58761;BME280;44529;47.464;19.014;2022-07-18T07:20:41;101080.28;;;21.98;39.13
58761;BME280;44529;47.464;19.014;2022-07-18T07:23:44;101072.78;;;22.21;38.12
58761;BME280;44529;47.464;19.014;2022-07-18T07:26:46;101073.84;;;22.39;37.25
58761;BME280;44529;47.464;19.014;2022-07-18T07:29:56;101076.94;;;22.61;37.26
58761;BME280;44529;47.464;19.014;2022-07-18T07:32:59;101066.91;;;23.06;35.96
58761;BME280;44529;47.464;19.014;2022-07-18T07:36:02;101070.69;;;23.31;35.39
58761;BME280;44529;47.464;19.014;2022-07-18T07:39:05;101066.59;;;23.55;36.18
58761;BME280;44529;47.464;19.014;2022-07-18T07:42:08;101065.69;;;23.77;36.02
58761;BME280;44529;47.464;19.014;2022-07-18T07:45:12;101070.97;;;24.00;35.58
58761;BME280;44529;47.464;19.014;2022-07-18T07:48:16;101054.94;;;24.17;33.20
58761;BME280;44529;47.464;19.014;2022-07-18T07:51:18;101057.84;;;24.38;32.19
58761;BME280;44529;47.464;19.014;2022-07-18T07:54:26;101062.38;;;24.68;31.73
58761;BME280;44529;47.464;19.014;2022-07-18T07:57:29;101064.84;;;24.94;30.07
58761;BME280;44529;47.464;19.014;2022-07-18T08:00:36;101060.59;;;25.15;29.45
58761;BME280;44529;47.464;19.014;2022-07-18T08:03:39;101058.66;;;25.22;32.72
58761;BME280;44529;47.464;19.014;2022-07-18T08:06:41;101066.59;;;25.34;31.17
58761;BME280;44529;47.464;19.014;2022-07-18T08:09:46;101069.78;;;25.61;30.81
58761;BME280;44529;47.464;19.014;2022-07-18T08:12:48;101071.00;;;25.75;30.43
58761;BME280;44529;47.464;19.014;2022-07-18T08:15:50;101071.81;;;26.00;30.01
58761;BME280;44529;47.464;19.014;2022-07-18T08:18:52;101067.03;;;26.18;30.31
58761;BME280;44529;47.464;19.014;2022-07-18T08:21:55;101072.62;;;26.15;29.08
58761;BME280;44529;47.464;19.014;2022-07-18T08:24:57;101069.03;;;26.22;28.97
58761;BME280;44529;47.464;19.014;2022-07-18T08:28:00;101067.84;;;26.30;29.17
58761;BME280;44529;47.464;19.014;2022-07-18T08:31:02;101073.75;;;26.39;29.69
58761;BME280;44529;47.464;19.014;2022-07-18T08:34:05;101065.38;;;26.67;28.39
58761;BME280;44529;47.464;19.014;2022-07-18T08:37:07;101065.25;;;26.99;28.58
58761;BME280;44529;47.464;19.014;2022-07-18T08:40:10;101063.63;;;27.13;29.23
58761;BME280;44529;47.464;19.014;2022-07-18T08:43:14;101068.34;;;27.19;27.98
58761;BME280;44529;47.464;19.014;2022-07-18T08:46:25;101070.69;;;27.28;27.10
58761;BME280;44529;47.464;19.014;2022-07-18T08:49:28;101065.81;;;27.43;27.26
58761;BME280;44529;47.464;19.014;2022-07-18T08:52:31;101061.97;;;27.22;27.77
58761;BME280;44529;47.464;19.014;2022-07-18T08:55:54;101064.75;;;27.22;27.05
58761;BME280;44529;47.464;19.014;2022-07-18T08:58:57;101062.62;;;27.48;28.16
58761;BME280;44529;47.464;19.014;2022-07-18T09:02:01;101065.59;;;27.78;25.75
58761;BME280;44529;47.464;19.014;2022-07-18T09:05:04;101067.47;;;27.33;27.94
58761;BME280;44529;47.464;19.014;2022-07-18T09:08:27;101072.44;;;27.63;27.19
58761;BME280;44529;47.464;19.014;2022-07-18T09:11:29;101069.19;;;28.20;26.26
58761;BME280;44529;47.464;19.014;2022-07-18T09:14:51;101066.72;;;28.29;25.72
58761;BME280;44529;47.464;19.014;2022-07-18T09:17:56;101063.13;;;27.91;27.06
58761;BME280;44529;47.464;19.014;2022-07-18T09:21:21;101061.72;;;27.62;27.63
58761;BME280;44529;47.464;19.014;2022-07-18T09:24:24;101063.25;;;28.18;26.30
58761;BME280;44529;47.464;19.014;2022-07-18T09:27:50;101057.44;;;28.81;25.28
58761;BME280;44529;47.464;19.014;2022-07-18T09:30:54;101058.50;;;29.21;24.76
58761;BME280;44529;47.464;19.014;2022-07-18T09:33:58;101054.25;;;29.67;24.46
58761;BME280;44529;47.464;19.014;2022-07-18T09:37:01;101049.16;;;30.09;24.34
58761;BME280;44529;47.464;19.014;2022-07-18T09:40:19;101052.09;;;30.02;23.56
58761;BME280;44529;47.464;19.014;2022-07-18T09:43:23;101055.09;;;29.87;23.19
58761;BME280;44529;47.464;19.014;2022-07-18T09:46:26;101053.63;;;30.26;23.26
58761;BME280;44529;47.464;19.014;2022-07-18T09:49:32;101055.31;;;30.43;22.59
58761;BME280;44529;47.464;19.014;2022-07-18T09:52:34;101050.81;;;30.50;22.51
58761;BME280;44529;47.464;19.014;2022-07-18T09:55:43;101043.37;;;30.63;22.06
58761;BME280;44529;47.464;19.014;2022-07-18T09:58:53;101052.16;;;31.01;21.66
58761;BME280;44529;47.464;19.014;2022-07-18T10:01:56;101044.88;;;30.87;21.18
58761;BME280;44529;47.464;19.014;2022-07-18T10:04:59;101054.03;;;30.48;22.09
58761;BME280;44529;47.464;19.014;2022-07-18T10:08:08;101041.53;;;30.76;22.20
58761;BME280;44529;47.464;19.014;2022-07-18T10:11:12;101031.75;;;30.25;21.98
58761;BME280;44529;47.464;19.014;2022-07-18T10:14:14;101032.84;;;30.70;21.58
58761;BME280;44529;47.464;19.014;2022-07-18T10:17:16;101039.78;;;30.82;21.10
58761;BME280;44529;47.464;19.014;2022-07-18T10:21:13;101035.00;;;30.83;21.65
58761;BME280;44529;47.464;19.014;2022-07-18T10:23:50;101027.34;;;30.67;20.80
58761;BME280;44529;47.464;19.014;2022-07-18T10:27:17;101027.34;;;30.67;20.71
58761;BME280;44529;47.464;19.014;2022-07-18T10:30:32;101016.09;;;30.70;20.79
58761;BME280;44529;47.464;19.014;2022-07-18T10:33:43;101012.78;;;30.95;21.27
58761;BME280;44529;47.464;19.014;2022-07-18T10:39:53;101009.09;;;31.35;20.99
58761;BME280;44529;47.464;19.014;2022-07-18T10:47:05;101006.75;;;31.33;19.96
58761;BME280;44529;47.464;19.014;2022-07-18T10:50:09;100994.78;;;31.65;19.74
58761;BME280;44529;47.464;19.014;2022-07-18T10:53:11;100996.78;;;31.48;20.59
58761;BME280;44529;47.464;19.014;2022-07-18T10:56:14;100995.41;;;31.57;18.23
58761;BME280;44529;47.464;19.014;2022-07-18T10:59:16;100994.69;;;31.36;18.39
58761;BME280;44529;47.464;19.014;2022-07-18T11:02:30;100996.06;;;31.28;18.66
58761;BME280;44529;47.464;19.014;2022-07-18T11:05:41;100991.38;;;31.25;18.79
58761;BME280;44529;47.464;19.014;2022-07-18T11:08:44;100985.94;;;31.34;17.75
58761;BME280;44529;47.464;19.014;2022-07-18T11:12:21;100975.94;;;31.17;16.56
58761;BME280;44529;47.464;19.014;2022-07-18T11:15:24;100969.63;;;30.80;16.95
58761;BME280;44529;47.464;19.014;2022-07-18T11:18:26;100967.91;;;31.02;17.80
58761;BME280;44529;47.464;19.014;2022-07-18T11:21:34;100955.09;;;31.05;17.40
58761;BME280;44529;47.464;19.014;2022-07-18T11:24:41;100955.34;;;31.11;17.06
58761;BME280;44529;47.464;19.014;2022-07-18T11:27:44;100953.44;;;31.08;15.94
58761;BME280;44529;47.464;19.014;2022-07-18T11:31:00;100953.78;;;31.10;15.49
58761;BME280;44529;47.464;19.014;2022-07-18T11:34:03;100943.28;;;30.97;17.82
58761;BME280;44529;47.464;19.014;2022-07-18T11:37:05;100935.59;;;30.85;18.67
58761;BME280;44529;47.464;19.014;2022-07-18T11:40:09;100933.78;;;30.79;18.60
58761;BME280;44529;47.464;19.014;2022-07-18T11:43:19;100930.53;;;30.80;18.00
58761;BME280;44529;47.464;19.014;2022-07-18T11:46:26;100928.63;;;30.93;17.96
58761;BME280;44529;47.464;19.014;2022-07-18T11:49:29;100928.34;;;30.88;17.59
58761;BME280;44529;47.464;19.014;2022-07-18T11:52:32;100922.50;;;30.82;17.93
58761;BME280;44529;47.464;19.014;2022-07-18T11:55:36;100926.06;;;30.83;17.99
58761;BME280;44529;47.464;19.014;2022-07-18T11:58:40;100920.94;;;30.81;18.25
58761;BME280;44529;47.464;19.014;2022-07-18T12:01:43;100918.84;;;30.85;17.98
58761;BME280;44529;47.464;19.014;2022-07-18T12:04:46;100919.44;;;30.77;17.81
58761;BME280;44529;47.464;19.014;2022-07-18T12:07:49;100914.00;;;30.69;17.47
58761;BME280;44529;47.464;19.014;2022-07-18T12:11:11;100909.94;;;30.54;16.87
58761;BME280;44529;47.464;19.014;2022-07-18T12:14:14;100903.25;;;30.32;17.10
58761;BME280;44529;47.464;19.014;2022-07-18T12:17:17;100901.53;;;30.18;16.88
58761;BME280;44529;47.464;19.014;2022-07-18T12:20:21;100898.59;;;30.05;17.55
58761;BME280;44529;47.464;19.014;2022-07-18T12:23:28;100893.09;;;30.02;17.90
58761;BME280;44529;47.464;19.014;2022-07-18T12:26:31;100886.22;;;30.06;18.00
58761;BME280;44529;47.464;19.014;2022-07-18T12:32:58;100887.94;;;30.20;17.76
58761;BME280;44529;47.464;19.014;2022-07-18T12:36:01;100883.88;;;30.25;17.85
58761;BME280;44529;47.464;19.014;2022-07-18T12:39:03;100881.41;;;30.27;17.15
58761;BME280;44529;47.464;19.014;2022-07-18T12:42:06;100880.50;;;30.13;17.52
58761;BME280;44529;47.464;19.014;2022-07-18T12:45:10;100885.69;;;30.15;17.27
58761;BME280;44529;47.464;19.014;2022-07-18T12:48:13;100870.78;;;30.02;17.55
58761;BME280;44529;47.464;19.014;2022-07-18T12:51:16;100869.84;;;30.08;17.56
58761;BME280;44529;47.464;19.014;2022-07-18T12:54:18;100864.84;;;30.19;17.44
58761;BME280;44529;47.464;19.014;2022-07-18T12:57:21;100870.56;;;30.12;17.58
58761;BME280;44529;47.464;19.014;2022-07-18T13:00:23;100856.84;;;30.22;16.63
58761;BME280;44529;47.464;19.014;2022-07-18T13:03:25;100859.19;;;30.23;16.35
58761;BME280;44529;47.464;19.014;2022-07-18T13:06:28;100848.69;;;30.11;16.93
58761;BME280;44529;47.464;19.014;2022-07-18T13:09:30;100848.19;;;30.16;17.59
58761;BME280;44529;47.464;19.014;2022-07-18T13:12:33;100850.47;;;30.21;17.76
58761;BME280;44529;47.464;19.014;2022-07-18T13:15:35;100847.88;;;30.30;16.95
58761;BME280;44529;47.464;19.014;2022-07-18T13:18:38;100845.62;;;30.41;17.57
58761;BME280;44529;47.464;19.014;2022-07-18T13:21:41;100845.97;;;30.43;16.78
58761;BME280;44529;47.464;19.014;2022-07-18T13:24:44;100847.72;;;30.37;16.90
58761;BME280;44529;47.464;19.014;2022-07-18T13:27:46;100842.84;;;30.41;17.10
58761;BME280;44529;47.464;19.014;2022-07-18T13:30:48;100838.94;;;30.19;17.26
58761;BME280;44529;47.464;19.014;2022-07-18T13:33:51;100834.00;;;30.27;17.30
58761;BME280;44529;47.464;19.014;2022-07-18T13:36:53;100832.53;;;30.38;17.54
58761;BME280;44529;47.464;19.014;2022-07-18T13:39:57;100828.12;;;30.57;16.59
58761;BME280;44529;47.464;19.014;2022-07-18T13:42:59;100842.78;;;30.25;16.97
58761;BME280;44529;47.464;19.014;2022-07-18T13:46:02;100823.87;;;30.16;17.56
58761;BME280;44529;47.464;19.014;2022-07-18T13:49:10;100822.38;;;30.12;17.95
58761;BME280;44529;47.464;19.014;2022-07-18T13:52:12;100822.56;;;30.21;18.36
58761;BME280;44529;47.464;19.014;2022-07-18T13:55:15;100820.28;;;30.16;17.58
58761;BME280;44529;47.464;19.014;2022-07-18T13:58:17;100817.13;;;30.14;18.02
58761;BME280;44529;47.464;19.014;2022-07-18T14:01:25;100809.91;;;30.16;18.49
58761;BME280;44529;47.464;19.014;2022-07-18T14:04:28;100817.50;;;30.16;18.57
58761;BME280;44529;47.464;19.014;2022-07-18T14:07:50;100816.00;;;30.11;17.91
58761;BME280;44529;47.464;19.014;2022-07-18T14:10:53;100812.44;;;30.11;17.62
58761;BME280;44529;47.464;19.014;2022-07-18T14:13:55;100817.13;;;30.14;18.29
58761;BME280;44529;47.464;19.014;2022-07-18T14:16:57;100808.34;;;30.15;18.04
58761;BME280;44529;47.464;19.014;2022-07-18T14:20:00;100811.53;;;30.14;18.30
58761;BME280;44529;47.464;19.014;2022-07-18T14:23:03;100809.81;;;30.20;18.30
58761;BME280;44529;47.464;19.014;2022-07-18T14:26:05;100807.41;;;30.22;18.28
58761;BME280;44529;47.464;19.014;2022-07-18T14:29:07;100802.00;;;30.15;18.64
58761;BME280;44529;47.464;19.014;2022-07-18T14:32:09;100795.63;;;30.14;18.78
58761;BME280;44529;47.464;19.014;2022-07-18T14:35:12;100789.94;;;30.18;19.04
58761;BME280;44529;47.464;19.014;2022-07-18T14:38:14;100786.81;;;30.16;19.17
58761;BME280;44529;47.464;19.014;2022-07-18T14:41:17;100786.22;;;30.25;18.98
58761;BME280;44529;47.464;19.014;2022-07-18T14:44:19;100782.63;;;30.24;19.22
58761;BME280;44529;47.464;19.014;2022-07-18T14:47:23;100777.56;;;30.19;17.96
58761;BME280;44529;47.464;19.014;2022-07-18T14:50:25;100772.94;;;30.12;18.38
58761;BME280;44529;47.464;19.014;2022-07-18T14:53:28;100772.87;;;30.16;18.57
58761;BME280;44529;47.464;19.014;2022-07-18T14:56:31;100766.56;;;30.12;19.05
58761;BME280;44529;47.464;19.014;2022-07-18T14:59:33;100770.94;;;30.13;19.01
58761;BME280;44529;47.464;19.014;2022-07-18T15:02:38;100766.78;;;30.21;18.56
58761;BME280;44529;47.464;19.014;2022-07-18T15:05:41;100765.13;;;30.24;18.74
58761;BME280;44529;47.464;19.014;2022-07-18T15:08:44;100773.56;;;30.20;18.17
58761;BME280;44529;47.464;19.014;2022-07-18T15:11:46;100757.41;;;30.11;18.72
58761;BME280;44529;47.464;19.014;2022-07-18T15:14:49;100755.72;;;29.98;18.81
58761;BME280;44529;47.464;19.014;2022-07-18T15:17:51;100749.06;;;29.91;19.11
58761;BME280;44529;47.464;19.014;2022-07-18T15:20:53;100745.00;;;29.96;18.66
58761;BME280;44529;47.464;19.014;2022-07-18T15:23:56;100740.53;;;29.82;19.00
58761;BME280;44529;47.464;19.014;2022-07-18T15:26:59;100737.19;;;29.87;19.48
58761;BME280;44529;47.464;19.014;2022-07-18T15:30:03;100730.22;;;29.79;18.43
58761;BME280;44529;47.464;19.014;2022-07-18T15:33:25;100727.31;;;29.66;19.17
58761;BME280;44529;47.464;19.014;2022-07-18T15:36:28;100726.47;;;29.70;19.55
58761;BME280;44529;47.464;19.014;2022-07-18T15:39:30;100734.38;;;29.71;19.61
58761;BME280;44529;47.464;19.014;2022-07-18T15:42:33;100729.66;;;29.68;19.10
58761;BME280;44529;47.464;19.014;2022-07-18T15:45:35;100733.09;;;29.56;18.89
58761;BME280;44529;47.464;19.014;2022-07-18T15:48:38;100727.91;;;29.58;19.75
58761;BME280;44529;47.464;19.014;2022-07-18T15:51:40;100732.25;;;29.59;19.57
58761;BME280;44529;47.464;19.014;2022-07-18T15:54:48;100726.25;;;29.60;19.69
58761;BME280;44529;47.464;19.014;2022-07-18T15:57:50;100717.81;;;29.64;20.12
58761;BME280;44529;47.464;19.014;2022-07-18T16:00:53;100722.22;;;29.61;20.09